地図

経路データ

SID SEASON NUMBER BASIN SUBBASIN NAME ISO_TIME NATURE LAT LON WMO_WIND WMO_PRES WMO_AGENCY TRACK_TYPE DIST2LAND LANDFALL IFLAG USA_AGENCY USA_ATCF_ID USA_LAT USA_LON USA_RECORD USA_STATUS USA_WIND USA_PRES USA_SSHS USA_R34_NE USA_R34_SE USA_R34_SW USA_R34_NW USA_R50_NE USA_R50_SE USA_R50_SW USA_R50_NW USA_R64_NE USA_R64_SE USA_R64_SW USA_R64_NW USA_POCI USA_ROCI USA_RMW USA_EYE TOKYO_LAT TOKYO_LON TOKYO_GRADE TOKYO_WIND TOKYO_PRES TOKYO_R50_DIR TOKYO_R50_LONG TOKYO_R50_SHORT TOKYO_R30_DIR TOKYO_R30_LONG TOKYO_R30_SHORT TOKYO_LAND CMA_LAT CMA_LON CMA_CAT CMA_WIND CMA_PRES HKO_LAT HKO_LON HKO_CAT HKO_WIND HKO_PRES NEWDELHI_LAT NEWDELHI_LON NEWDELHI_GRADE NEWDELHI_WIND NEWDELHI_PRES NEWDELHI_CI NEWDELHI_DP NEWDELHI_POCI REUNION_LAT REUNION_LON REUNION_TYPE REUNION_WIND REUNION_PRES REUNION_TNUM REUNION_CI REUNION_RMW REUNION_R34_NE REUNION_R34_SE REUNION_R34_SW REUNION_R34_NW REUNION_R50_NE REUNION_R50_SE REUNION_R50_SW REUNION_R50_NW REUNION_R64_NE REUNION_R64_SE REUNION_R64_SW REUNION_R64_NW BOM_LAT BOM_LON BOM_TYPE BOM_WIND BOM_PRES BOM_TNUM BOM_CI BOM_RMW BOM_R34_NE BOM_R34_SE BOM_R34_SW BOM_R34_NW BOM_R50_NE BOM_R50_SE BOM_R50_SW BOM_R50_NW BOM_R64_NE BOM_R64_SE BOM_R64_SW BOM_R64_NW BOM_ROCI BOM_POCI BOM_EYE BOM_POS_METHOD BOM_PRES_METHOD NADI_LAT NADI_LON NADI_CAT NADI_WIND NADI_PRES WELLINGTON_LAT WELLINGTON_LON WELLINGTON_WIND WELLINGTON_PRES DS824_LAT DS824_LON DS824_STAGE DS824_WIND DS824_PRES TD9636_LAT TD9636_LON TD9636_STAGE TD9636_WIND TD9636_PRES TD9635_LAT TD9635_LON TD9635_WIND TD9635_PRES TD9635_ROCI NEUMANN_LAT NEUMANN_LON NEUMANN_CLASS NEUMANN_WIND NEUMANN_PRES MLC_LAT MLC_LON MLC_CLASS MLC_WIND MLC_PRES USA_GUST BOM_GUST BOM_GUST_PER REUNION_GUST REUNION_GUST_PER USA_SEAHGT USA_SEARAD_NE USA_SEARAD_SE USA_SEARAD_SW USA_SEARAD_NW STORM_SPEED STORM_DIR
1911077S16147 1911 25 SP EA NOT_NAMED 1911-03-17 23:00:00 NR -15.6000 146.800 main 149 135 __________O___ -1 -15.6000 146.800 7 11 239
1911077S16147 1911 25 SP EA NOT_NAMED 1911-03-18 00:00:00 NR -15.6946 146.637 main 125 75 __________P___ -1 -15.6946 146.637 7 11 239
1911077S16147 1911 25 SP EA NOT_NAMED 1911-03-18 03:00:00 NR -15.9769 146.142 main 65 21 __________P___ -1 -15.9769 146.142 7 11 240
1911077S16147 1911 25 SP EA NOT_NAMED 1911-03-18 06:00:00 NR -16.2546 145.629 main 10 0 __________P___ -1 -16.2546 145.629 7 12 242
1911077S16147 1911 25 SP EA NOT_NAMED 1911-03-18 09:00:00 NR -16.5251 145.086 main 0 0 __________P___ -1 -16.5251 145.086 7 12 243
1911077S16147 1911 25 SP EA NOT_NAMED 1911-03-18 11:00:00 NR -16.7000 144.700 main 0 0 __________O___ -1 -16.7000 144.700 7 12 245
1911077S16147 1911 25 SP EA NOT_NAMED 1911-03-18 12:00:00 NR -16.7854 144.499 main 0 0 __________P___ -1 -16.7854 144.499 7 13 248
1911077S16147 1911 25 SP EA NOT_NAMED 1911-03-18 15:00:00 NR -17.0252 143.875 main 0 0 __________P___ -1 -17.0252 143.875 7 13 250
1911077S16147 1911 25 SP EA NOT_NAMED 1911-03-18 18:00:00 NR -17.2231 143.249 main 0 0 __________P___ -1 -17.2231 143.249 7 12 254
1911077S16147 1911 25 SP EA NOT_NAMED 1911-03-18 21:00:00 NR -17.3570 142.657 main 0 0 __________P___ -1 -17.3570 142.657 7 11 259
1911077S16147 1911 25 SP EA NOT_NAMED 1911-03-18 23:00:00 NR -17.4000 142.300 main 0 0 __________O___ -1 -17.4000 142.300 7 10 263
1911077S16147 1911 25 SP EA NOT_NAMED 1911-03-19 00:00:00 NR -17.4168 142.136 main 0 0 __________P___ -1 -17.4168 142.136 7 9 269
1911077S16147 1911 25 SP EA NOT_NAMED 1911-03-19 03:00:00 NR -17.4126 141.690 main 0 0 __________P___ -1 -17.4126 141.690 7 8 277
1911077S16147 1911 25 SP EA NOT_NAMED 1911-03-19 06:00:00 NR -17.3264 141.309 main 0 0 __________P___ -1 -17.3264 141.309 7 7 291
1911077S16147 1911 25 SP EA NOT_NAMED 1911-03-19 09:00:00 NR -17.1581 140.986 main 0 0 __________P___ -1 -17.1581 140.986 7 7 304
1911077S16147 1911 25 SP EA NOT_NAMED 1911-03-19 11:00:00 NR -17.0000 140.800 main 21 21 __________O___ -1 -17.0000 140.800 7 7 314
1911077S16147 1911 25 SP EA NOT_NAMED 1911-03-19 12:00:00 NR -16.9073 140.715 main 33 33 __________P___ -1 -16.9073 140.715 7 8 324
1911077S16147 1911 25 SP EA NOT_NAMED 1911-03-19 15:00:00 NR -16.5817 140.486 main 69 69 __________P___ -1 -16.5817 140.486 7 8 330
1911077S16147 1911 25 SP EA NOT_NAMED 1911-03-19 18:00:00 NR -16.2010 140.289 main 109 109 __________P___ -1 -16.2010 140.289 7 9 336
1911077S16147 1911 25 SP EA NOT_NAMED 1911-03-19 21:00:00 NR -15.7858 140.113 main 139 139 __________P___ -1 -15.7858 140.113 7 9 338
1911077S16147 1911 25 SP EA NOT_NAMED 1911-03-19 23:00:00 NR -15.5000 140.000 main 156 __________O___ -1 -15.5000 140.000 7 9 339

デジタル台風データ・検索

IBTrACS Databaseについて

本データベースは、米国NOAAが公開する1842年以降の世界の熱帯低気圧のベストトラックデータアーカイブInternational Best Track Archive for Climate Stewardship (IBTrACS)を、ウェブで閲覧しやすい形式に変換したものです。

最終更新日:2021-12-08